Time;durP1;ratioP1;P1;durP2;ratioP2;P2;SDS_P1;SDS_P2;PMS_P1;PMS_P2;Temp;Humidity;BMP_temperature;BMP_pressure;BME280_temperature;BME280_humidity;BME280_pressure;Samples;Min_cycle;Max_cycle;Signal;HPM_P1;HPM_P2
2023/08/19 00:01:26;;;;;;;;;21.50;21.00;;;;;;;;5043723;28;53899;-61
2023/08/19 00:03:52;;;;;;;;;23.50;23.00;;;;;;;;5041479;28;51658;-61
2023/08/19 00:06:36;;;;;;;;;19.67;19.67;;;;;;;;5054044;28;51122;-61
2023/08/19 00:09:04;;;;;;;;;21.00;21.00;;;;;;;;5052853;28;50992;-61
2023/08/19 00:11:29;;;;;;;;;23.00;22.50;;;;;;;;5050687;28;52969;-61
2023/08/19 00:13:54;;;;;;;;;22.25;21.50;;;;;;;;5052081;28;51303;-61
2023/08/19 00:16:20;;;;;;;;;20.67;20.67;;;;;;;;5053453;28;50949;-61
2023/08/19 00:18:45;;;;;;;;;22.00;22.00;;;;;;;;5051024;28;51241;-61
2023/08/19 00:21:11;;;;;;;;;26.33;24.00;;;;;;;;5054482;28;52304;-61
2023/08/19 00:23:36;;;;;;;;;26.00;25.00;;;;;;;;5053655;28;51057;-61
2023/08/19 00:26:01;;;;;;;;;21.00;20.67;;;;;;;;5053442;28;50921;-61
2023/08/19 00:28:27;;;;;;;;;24.25;24.25;;;;;;;;5051447;28;50905;-61
2023/08/19 00:30:52;;;;;;;;;23.50;22.25;;;;;;;;5053800;28;51961;-62
2023/08/19 00:33:17;;;;;;;;;21.00;21.00;;;;;;;;5053820;28;51056;-61
2023/08/19 00:35:42;;;;;;;;;24.75;23.75;;;;;;;;5053568;28;51134;-61
2023/08/19 00:38:08;;;;;;;;;24.75;22.75;;;;;;;;5052503;28;51281;-61
2023/08/19 00:40:34;;;;;;;;;26.25;24.25;;;;;;;;5053041;28;51020;-61
2023/08/19 00:42:59;;;;;;;;;22.00;21.67;;;;;;;;5047188;28;50953;-61
2023/08/19 00:45:24;;;;;;;;;20.25;19.50;;;;;;;;5053444;28;51081;-61
2023/08/19 00:47:49;;;;;;;;;21.50;21.50;;;;;;;;5052772;28;51145;-61
2023/08/19 00:50:15;;;;;;;;;23.00;22.00;;;;;;;;5053303;28;51837;-61
2023/08/19 00:52:41;;;;;;;;;22.33;22.33;;;;;;;;5053389;28;50988;-61
2023/08/19 00:55:07;;;;;;;;;20.00;20.00;;;;;;;;5053022;28;50975;-61
2023/08/19 00:57:33;;;;;;;;;25.33;23.67;;;;;;;;5053663;28;50972;-61
2023/08/19 00:59:58;;;;;;;;;21.00;21.00;;;;;;;;5051918;28;51968;-61
2023/08/19 01:02:23;;;;;;;;;22.67;22.00;;;;;;;;5051011;28;51085;-61
2023/08/19 01:04:48;;;;;;;;;20.00;19.67;;;;;;;;5051283;28;51280;-61
2023/08/19 01:07:21;;;;;;;;;21.00;20.00;;;;;;;;5053718;28;51044;-61
2023/08/19 01:09:49;;;;;;;;;23.00;22.00;;;;;;;;5052096;28;51793;-60
2023/08/19 01:12:29;;;;;;;;;22.25;22.25;;;;;;;;5053418;28;51142;-61
2023/08/19 01:15:05;;;;;;;;;19.00;18.67;;;;;;;;5050332;28;50993;-60
2023/08/19 01:17:32;;;;;;;;;19.00;18.67;;;;;;;;5069278;28;32041;-60
2023/08/19 01:19:57;;;;;;;;;24.33;22.33;;;;;;;;5084937;28;32703;-61
2023/08/19 01:22:28;;;;;;;;;24.00;24.00;;;;;;;;5087994;28;43076;-61
2023/08/19 01:24:53;;;;;;;;;22.33;20.67;;;;;;;;5073131;28;50946;-61
2023/08/19 01:27:23;;;;;;;;;22.00;21.33;;;;;;;;5080769;28;50946;-61
2023/08/19 01:29:48;;;;;;;;;21.33;19.33;;;;;;;;5087157;28;42868;-61
2023/08/19 01:32:14;;;;;;;;;22.00;22.00;;;;;;;;5081323;28;50795;-61
2023/08/19 01:34:39;;;;;;;;;22.67;22.67;;;;;;;;5082396;28;31209;-61
2023/08/19 01:37:07;;;;;;;;;20.67;19.67;;;;;;;;5067603;28;31880;-60
2023/08/19 01:39:34;;;;;;;;;18.33;18.00;;;;;;;;5070340;28;33164;-61
2023/08/19 01:42:00;;;;;;;;;21.00;21.00;;;;;;;;5070110;28;31878;-61
2023/08/19 01:44:25;;;;;;;;;23.67;23.33;;;;;;;;5068315;28;31898;-61
2023/08/19 01:46:50;;;;;;;;;22.75;22.75;;;;;;;;5069298;28;31772;-61
2023/08/19 01:49:16;;;;;;;;;24.00;23.67;;;;;;;;5085910;28;31936;-61
2023/08/19 01:51:41;;;;;;;;;22.00;22.00;;;;;;;;5077053;28;51027;-61
2023/08/19 01:54:06;;;;;;;;;18.33;18.33;;;;;;;;5080977;28;51135;-61
2023/08/19 01:56:31;;;;;;;;;20.00;19.67;;;;;;;;5081738;28;50582;-61
2023/08/19 01:58:57;;;;;;;;;18.00;18.00;;;;;;;;5085130;28;51146;-61
2023/08/19 02:01:22;;;;;;;;;16.00;15.67;;;;;;;;5083994;28;45219;-61
2023/08/19 02:03:47;;;;;;;;;18.00;16.33;;;;;;;;5069079;28;50936;-62
2023/08/19 02:06:13;;;;;;;;;19.67;18.00;;;;;;;;5084939;28;50285;-61
2023/08/19 02:08:38;;;;;;;;;20.33;19.33;;;;;;;;5089483;28;50472;-61
2023/08/19 02:11:03;;;;;;;;;17.67;16.67;;;;;;;;5082192;28;31954;-61
2023/08/19 02:13:28;;;;;;;;;18.00;17.67;;;;;;;;5081988;28;31975;-61
2023/08/19 02:15:53;;;;;;;;;18.33;17.33;;;;;;;;5093049;28;27885;-61
2023/08/19 02:18:21;;;;;;;;;16.00;14.00;;;;;;;;5070759;27;50399;-61
2023/08/19 02:20:47;;;;;;;;;17.00;17.00;;;;;;;;5069866;28;31921;-61
2023/08/19 02:23:12;;;;;;;;;18.00;16.33;;;;;;;;5069669;28;31858;-61
2023/08/19 02:25:37;;;;;;;;;16.33;15.33;;;;;;;;5068996;28;31754;-61
2023/08/19 02:28:02;;;;;;;;;16.00;16.00;;;;;;;;5062418;28;32786;-61
2023/08/19 02:30:28;;;;;;;;;14.00;14.00;;;;;;;;5064165;28;31961;-62
2023/08/19 02:32:53;;;;;;;;;15.67;14.67;;;;;;;;5060400;28;31739;-61
2023/08/19 02:35:18;;;;;;;;;16.33;16.00;;;;;;;;5069611;28;31808;-61
2023/08/19 02:37:43;;;;;;;;;17.00;16.33;;;;;;;;5068814;28;32543;-61
2023/08/19 02:40:09;;;;;;;;;15.33;15.33;;;;;;;;5067403;28;31672;-61
2023/08/19 02:42:35;;;;;;;;;17.50;17.25;;;;;;;;5065056;28;31771;-60
2023/08/19 02:45:00;;;;;;;;;16.33;16.00;;;;;;;;5068098;28;31909;-61
2023/08/19 02:47:25;;;;;;;;;16.33;15.00;;;;;;;;5068390;28;33314;-61
2023/08/19 02:49:50;;;;;;;;;16.33;15.67;;;;;;;;5068520;28;31745;-61
2023/08/19 02:52:15;;;;;;;;;18.33;17.00;;;;;;;;5081162;28;31834;-61
2023/08/19 02:54:41;;;;;;;;;17.00;17.00;;;;;;;;5067927;28;32019;-61
2023/08/19 02:57:06;;;;;;;;;17.00;16.67;;;;;;;;5068443;28;32038;-61
2023/08/19 02:59:31;;;;;;;;;15.33;15.33;;;;;;;;5068619;28;32155;-61
2023/08/19 03:01:56;;;;;;;;;16.33;15.67;;;;;;;;5066352;28;32199;-61
2023/08/19 03:04:21;;;;;;;;;18.67;18.33;;;;;;;;5063606;28;50375;-61
2023/08/19 03:06:47;;;;;;;;;17.00;16.33;;;;;;;;5067429;28;50843;-61
2023/08/19 03:09:12;;;;;;;;;17.33;16.67;;;;;;;;5068438;28;32051;-61
2023/08/19 03:11:37;;;;;;;;;17.33;16.67;;;;;;;;5060290;28;31912;-61
2023/08/19 03:14:02;;;;;;;;;16.67;16.67;;;;;;;;5066770;28;31790;-61
2023/08/19 03:16:27;;;;;;;;;19.00;17.33;;;;;;;;5066956;28;31880;-61
2023/08/19 03:18:53;;;;;;;;;15.33;15.00;;;;;;;;5061097;28;50958;-61
2023/08/19 03:21:18;;;;;;;;;16.00;16.00;;;;;;;;5064751;28;32003;-61
2023/08/19 03:23:43;;;;;;;;;16.33;16.00;;;;;;;;5068535;28;31900;-61
2023/08/19 03:26:08;;;;;;;;;17.25;17.25;;;;;;;;5068199;28;32497;-61
2023/08/19 03:28:33;;;;;;;;;18.67;15.33;;;;;;;;5066897;28;32149;-61
2023/08/19 03:30:59;;;;;;;;;16.67;16.67;;;;;;;;5068737;28;31778;-61
2023/08/19 03:33:24;;;;;;;;;16.33;14.67;;;;;;;;5068236;28;31895;-61
2023/08/19 03:35:49;;;;;;;;;18.00;18.00;;;;;;;;5068893;28;32049;-61
2023/08/19 03:38:15;;;;;;;;;16.00;16.00;;;;;;;;5066613;28;31775;-61
2023/08/19 03:40:40;;;;;;;;;15.33;15.33;;;;;;;;5070294;28;32128;-61
2023/08/19 03:43:07;;;;;;;;;15.33;14.33;;;;;;;;5071610;28;31926;-61
2023/08/19 03:45:33;;;;;;;;;16.00;16.00;;;;;;;;5071856;28;31954;-61
2023/08/19 03:47:58;;;;;;;;;14.33;14.33;;;;;;;;5068625;28;31739;-61
2023/08/19 03:50:23;;;;;;;;;13.67;12.33;;;;;;;;5071966;28;32010;-61
2023/08/19 03:52:49;;;;;;;;;15.00;14.00;;;;;;;;5070778;28;32154;-61
2023/08/19 03:55:14;;;;;;;;;15.00;14.00;;;;;;;;5055303;28;50949;-61
2023/08/19 03:57:39;;;;;;;;;14.00;13.00;;;;;;;;5053695;28;50941;-61
2023/08/19 04:00:05;;;;;;;;;14.00;13.33;;;;;;;;5052571;28;51117;-61
2023/08/19 04:02:30;;;;;;;;;15.00;15.00;;;;;;;;5054198;28;51302;-61
2023/08/19 04:04:59;;;;;;;;;13.00;13.00;;;;;;;;5050305;28;51981;-61
2023/08/19 04:07:24;;;;;;;;;12.33;12.00;;;;;;;;5051765;28;50976;-61
2023/08/19 04:09:49;;;;;;;;;13.67;13.67;;;;;;;;5053924;28;50952;-61
2023/08/19 04:12:15;;;;;;;;;16.67;12.33;;;;;;;;5054113;28;51095;-61
2023/08/19 04:14:42;;;;;;;;;13.33;12.33;;;;;;;;5052796;28;51685;-61
2023/08/19 04:17:07;;;;;;;;;12.00;12.00;;;;;;;;5053938;28;50965;-61
2023/08/19 04:19:32;;;;;;;;;12.33;12.33;;;;;;;;5053740;28;51453;-61
2023/08/19 04:21:57;;;;;;;;;16.00;14.00;;;;;;;;5052384;28;51030;-61
2023/08/19 04:24:22;;;;;;;;;13.33;13.33;;;;;;;;5052974;28;51733;-61
2023/08/19 04:26:48;;;;;;;;;11.33;11.33;;;;;;;;5053778;28;50901;-61
2023/08/19 04:29:13;;;;;;;;;11.00;11.00;;;;;;;;5052761;28;51148;-61
2023/08/19 04:31:39;;;;;;;;;11.00;11.00;;;;;;;;5053151;28;51355;-61
2023/08/19 04:34:04;;;;;;;;;9.67;9.00;;;;;;;;5053547;28;51240;-61
2023/08/19 04:36:29;;;;;;;;;9.00;8.33;;;;;;;;5051909;28;50980;-62
2023/08/19 04:38:54;;;;;;;;;16.00;15.00;;;;;;;;5053592;28;51123;-62
2023/08/19 04:41:20;;;;;;;;;13.00;13.00;;;;;;;;5048321;28;51137;-61
2023/08/19 04:43:46;;;;;;;;;14.00;12.33;;;;;;;;5052561;28;51749;-62
2023/08/19 04:46:12;;;;;;;;;12.00;11.00;;;;;;;;5053561;28;51071;-61
2023/08/19 04:48:38;;;;;;;;;12.00;11.33;;;;;;;;5051431;28;51087;-61
2023/08/19 04:51:03;;;;;;;;;12.67;12.67;;;;;;;;5053409;28;51312;-61
2023/08/19 04:53:28;;;;;;;;;10.00;10.00;;;;;;;;5052852;28;51061;-61
2023/08/19 04:55:58;;;;;;;;;12.67;12.67;;;;;;;;5060836;27;51188;-62
2023/08/19 04:58:23;;;;;;;;;11.33;10.67;;;;;;;;5052400;28;51703;-62
2023/08/19 05:00:48;;;;;;;;;11.00;10.33;;;;;;;;5049410;28;51327;-61
2023/08/19 05:03:13;;;;;;;;;11.00;10.67;;;;;;;;5053303;28;50990;-61
2023/08/19 05:05:40;;;;;;;;;10.33;10.33;;;;;;;;5054129;28;52017;-62
2023/08/19 05:08:05;;;;;;;;;12.00;12.00;;;;;;;;5050744;28;51765;-61
2023/08/19 05:10:30;;;;;;;;;10.67;10.00;;;;;;;;5054128;28;51257;-61
2023/08/19 05:12:57;;;;;;;;;10.33;10.00;;;;;;;;5051066;28;51016;-61
2023/08/19 05:15:23;;;;;;;;;9.33;9.00;;;;;;;;5053337;28;50989;-61
2023/08/19 05:17:48;;;;;;;;;10.33;9.67;;;;;;;;5052832;28;51108;-61
2023/08/19 05:20:13;;;;;;;;;8.33;8.33;;;;;;;;5052355;28;51473;-61
2023/08/19 05:22:38;;;;;;;;;8.67;8.67;;;;;;;;5076923;28;51964;-62
2023/08/19 05:25:05;;;;;;;;;9.00;9.00;;;;;;;;5091353;28;8795;-62
2023/08/19 05:27:30;;;;;;;;;10.00;9.00;;;;;;;;5089338;28;8792;-62
2023/08/19 05:29:55;;;;;;;;;6.00;6.00;;;;;;;;5091842;28;8905;-62
2023/08/19 05:32:21;;;;;;;;;9.67;9.00;;;;;;;;5090299;28;8824;-61
2023/08/19 05:34:46;;;;;;;;;5.67;5.67;;;;;;;;5090177;28;8810;-62
2023/08/19 05:37:11;;;;;;;;;8.33;8.33;;;;;;;;5091065;28;8812;-61
2023/08/19 05:39:36;;;;;;;;;6.33;6.33;;;;;;;;5091191;28;8799;-61
2023/08/19 05:42:02;;;;;;;;;5.67;5.67;;;;;;;;5107504;28;9912;-61
2023/08/19 05:44:27;;;;;;;;;8.00;8.00;;;;;;;;5088715;28;8887;-61
2023/08/19 05:46:52;;;;;;;;;7.00;6.00;;;;;;;;5090585;28;9592;-62
2023/08/19 05:49:17;;;;;;;;;7.33;7.33;;;;;;;;5090127;28;8808;-62
2023/08/19 05:51:42;;;;;;;;;6.33;6.33;;;;;;;;5091869;28;8803;-62
2023/08/19 05:54:08;;;;;;;;;7.00;7.00;;;;;;;;5088783;28;8805;-62
2023/08/19 05:56:33;;;;;;;;;7.00;7.00;;;;;;;;5089083;28;8838;-62
2023/08/19 05:58:59;;;;;;;;;5.33;5.33;;;;;;;;5090686;28;8906;-62
2023/08/19 06:01:24;;;;;;;;;8.00;8.00;;;;;;;;5083126;28;8803;-62
2023/08/19 06:03:50;;;;;;;;;8.33;8.33;;;;;;;;5087637;28;8784;-61
2023/08/19 06:06:16;;;;;;;;;8.33;8.00;;;;;;;;5087011;28;8804;-62
2023/08/19 06:08:41;;;;;;;;;6.00;5.50;;;;;;;;5090181;28;8932;-62
2023/08/19 06:11:06;;;;;;;;;6.33;6.33;;;;;;;;5089642;28;8799;-61
2023/08/19 06:13:32;;;;;;;;;7.00;6.67;;;;;;;;5088414;28;8815;-61
2023/08/19 06:15:58;;;;;;;;;7.33;7.33;;;;;;;;5089129;28;9545;-62
2023/08/19 06:18:24;;;;;;;;;8.00;7.00;;;;;;;;5090457;28;8803;-62
2023/08/19 06:20:50;;;;;;;;;10.00;8.00;;;;;;;;5090688;28;8907;-62
2023/08/19 06:23:16;;;;;;;;;7.25;7.25;;;;;;;;5090248;28;11419;-62
2023/08/19 06:25:41;;;;;;;;;7.50;7.50;;;;;;;;5089422;28;8821;-62
2023/08/19 06:28:06;;;;;;;;;7.33;7.33;;;;;;;;5088905;28;9561;-62
2023/08/19 06:30:32;;;;;;;;;9.00;8.00;;;;;;;;5090791;28;8862;-62
2023/08/19 06:32:57;;;;;;;;;6.00;6.00;;;;;;;;5076934;28;50892;-62
2023/08/19 06:35:22;;;;;;;;;8.67;8.00;;;;;;;;5049829;28;51125;-61
2023/08/19 06:37:52;;;;;;;;;7.00;7.00;;;;;;;;5050903;28;51126;-61
2023/08/19 06:40:19;;;;;;;;;6.67;6.00;;;;;;;;5051601;28;51941;-61
2023/08/19 06:42:45;;;;;;;;;6.33;6.33;;;;;;;;5044982;28;51194;-61
2023/08/19 06:45:10;;;;;;;;;11.67;11.00;;;;;;;;5050412;28;51178;-61
2023/08/19 06:47:37;;;;;;;;;6.00;5.67;;;;;;;;5051695;28;51100;-61
2023/08/19 06:50:02;;;;;;;;;6.00;6.00;;;;;;;;5051470;28;52174;-61
2023/08/19 06:52:28;;;;;;;;;7.00;7.00;;;;;;;;5052183;28;51119;-61
2023/08/19 06:54:53;;;;;;;;;6.00;6.00;;;;;;;;5050685;28;50946;-61
2023/08/19 06:57:24;;;;;;;;;6.33;6.33;;;;;;;;5070661;28;51347;-61
2023/08/19 06:59:51;;;;;;;;;8.33;7.33;;;;;;;;5066697;28;32154;-61
2023/08/19 07:02:17;;;;;;;;;7.00;7.00;;;;;;;;5065597;28;50329;-60
2023/08/19 07:04:44;;;;;;;;;6.00;6.00;;;;;;;;5064911;28;31760;-62
2023/08/19 07:07:10;;;;;;;;;6.33;6.33;;;;;;;;5068557;28;44671;-62
2023/08/19 07:09:35;;;;;;;;;6.33;6.33;;;;;;;;5068464;28;31836;-61
2023/08/19 07:12:02;;;;;;;;;7.00;7.00;;;;;;;;5069043;28;31990;-61
2023/08/19 07:14:27;;;;;;;;;6.33;6.00;;;;;;;;5080270;28;31968;-60
2023/08/19 07:16:54;;;;;;;;;7.00;7.00;;;;;;;;5071556;28;31786;-61
2023/08/19 07:19:40;;;;;;;;;8.00;8.00;;;;;;;;5071288;28;33622;-61
2023/08/19 07:22:05;;;;;;;;;6.33;6.33;;;;;;;;5072040;28;31904;-61
2023/08/19 07:24:31;;;;;;;;;6.33;6.00;;;;;;;;5072475;28;31856;-61
2023/08/19 07:27:00;;;;;;;;;7.67;7.67;;;;;;;;5088094;27;32079;-61
2023/08/19 07:29:25;;;;;;;;;6.67;6.67;;;;;;;;5072167;28;34583;-61
2023/08/19 07:31:51;;;;;;;;;8.00;7.00;;;;;;;;5070895;28;31912;-61
2023/08/19 07:34:16;;;;;;;;;8.00;8.00;;;;;;;;5072139;28;32057;-61
2023/08/19 07:36:44;;;;;;;;;4.67;4.67;;;;;;;;5072423;28;31991;-61
2023/08/19 07:39:10;;;;;;;;;6.00;6.00;;;;;;;;5071964;28;31800;-61
2023/08/19 07:41:35;;;;;;;;;6.00;6.00;;;;;;;;5088149;28;31339;-61
2023/08/19 07:44:00;;;;;;;;;7.00;7.00;;;;;;;;5102089;28;31272;-61
2023/08/19 07:46:25;;;;;;;;;6.00;6.00;;;;;;;;5070571;28;32094;-61
2023/08/19 07:48:51;;;;;;;;;7.00;6.33;;;;;;;;5063315;28;31830;-61
2023/08/19 07:51:16;;;;;;;;;6.67;6.33;;;;;;;;5064531;28;32012;-61
2023/08/19 07:53:41;;;;;;;;;5.00;4.00;;;;;;;;5068472;28;32235;-61
2023/08/19 07:56:06;;;;;;;;;6.00;6.00;;;;;;;;5072135;28;31842;-61
2023/08/19 07:58:32;;;;;;;;;6.00;6.00;;;;;;;;5071797;28;31846;-61
2023/08/19 08:00:58;;;;;;;;;7.00;6.00;;;;;;;;5071692;28;31797;-61
2023/08/19 08:03:23;;;;;;;;;6.00;6.00;;;;;;;;5071616;28;31789;-61
2023/08/19 08:05:48;;;;;;;;;7.00;5.33;;;;;;;;5072228;28;31921;-61
2023/08/19 08:08:13;;;;;;;;;4.00;4.00;;;;;;;;5071824;28;32872;-61
2023/08/19 08:10:39;;;;;;;;;6.00;5.00;;;;;;;;5062543;28;31845;-61
2023/08/19 08:13:05;;;;;;;;;4.00;4.00;;;;;;;;5069480;28;31842;-61
2023/08/19 08:15:30;;;;;;;;;4.00;4.00;;;;;;;;5062462;28;31861;-60
2023/08/19 08:17:56;;;;;;;;;5.00;5.00;;;;;;;;5069880;28;32577;-61
2023/08/19 08:20:21;;;;;;;;;6.00;5.67;;;;;;;;5059850;28;50935;-61
2023/08/19 08:22:46;;;;;;;;;5.67;5.67;;;;;;;;5054037;28;51072;-61
2023/08/19 08:25:11;;;;;;;;;4.67;4.67;;;;;;;;5053581;28;51281;-60
2023/08/19 08:27:36;;;;;;;;;6.00;6.00;;;;;;;;5051465;28;52724;-61
2023/08/19 08:30:02;;;;;;;;;7.33;6.33;;;;;;;;5058014;28;51027;-60
2023/08/19 08:32:27;;;;;;;;;5.00;4.00;;;;;;;;5054295;28;50991;-60
2023/08/19 08:34:52;;;;;;;;;4.33;4.33;;;;;;;;5054636;28;50925;-61
2023/08/19 08:37:18;;;;;;;;;4.67;4.67;;;;;;;;5054421;28;51857;-61
2023/08/19 08:39:43;;;;;;;;;6.00;5.00;;;;;;;;5054405;28;51154;-61
2023/08/19 08:42:08;;;;;;;;;4.00;4.00;;;;;;;;5054375;28;51081;-61
2023/08/19 08:44:35;;;;;;;;;7.00;6.33;;;;;;;;5051221;28;51132;-60
2023/08/19 08:47:01;;;;;;;;;6.00;5.67;;;;;;;;5052891;28;52140;-61
2023/08/19 08:49:27;;;;;;;;;7.00;7.00;;;;;;;;5069953;28;51111;-61
2023/08/19 08:51:53;;;;;;;;;4.00;4.00;;;;;;;;5050794;28;51146;-62
2023/08/19 08:54:19;;;;;;;;;6.33;6.00;;;;;;;;5052925;28;51269;-62
2023/08/19 08:56:44;;;;;;;;;5.00;5.00;;;;;;;;5053563;28;52764;-61
2023/08/19 08:59:09;;;;;;;;;6.00;6.00;;;;;;;;5053910;28;51089;-61
2023/08/19 09:01:36;;;;;;;;;6.33;6.00;;;;;;;;5053441;28;50997;-61
2023/08/19 09:04:04;;;;;;;;;4.33;4.33;;;;;;;;5052879;28;51205;-61
2023/08/19 09:06:29;;;;;;;;;7.00;6.00;;;;;;;;5053504;28;52564;-61
2023/08/19 09:08:57;;;;;;;;;4.67;4.67;;;;;;;;5053068;28;51175;-61
2023/08/19 09:11:25;;;;;;;;;6.00;5.00;;;;;;;;5053959;28;51251;-61
2023/08/19 09:13:55;;;;;;;;;4.67;4.33;;;;;;;;5052702;28;51075;-61
2023/08/19 09:16:21;;;;;;;;;7.00;5.00;;;;;;;;5047350;28;51944;-59
2023/08/19 09:18:47;;;;;;;;;6.33;5.67;;;;;;;;5041668;28;51083;-63
2023/08/19 09:21:12;;;;;;;;;15.00;14.33;;;;;;;;5053724;28;50868;-62
2023/08/19 09:23:38;;;;;;;;;15.67;15.67;;;;;;;;5048583;28;51195;-61
2023/08/19 09:26:03;;;;;;;;;5.67;5.67;;;;;;;;5053276;28;51996;-61
2023/08/19 09:28:32;;;;;;;;;9.00;8.00;;;;;;;;5066790;27;50961;-61
2023/08/19 09:30:58;;;;;;;;;5.67;5.67;;;;;;;;5053284;28;50984;-63
2023/08/19 09:33:23;;;;;;;;;5.00;5.00;;;;;;;;5049125;28;51136;-61
2023/08/19 09:35:57;;;;;;;;;17.33;17.33;;;;;;;;5052183;28;51894;-61
2023/08/19 09:38:24;;;;;;;;;7.33;7.33;;;;;;;;5053335;28;51090;-61
2023/08/19 09:41:08;;;;;;;;;14.67;12.67;;;;;;;;5053465;28;51128;-61
2023/08/19 09:43:37;;;;;;;;;5.67;5.67;;;;;;;;5053244;28;51276;-61
2023/08/19 09:46:02;;;;;;;;;6.33;6.33;;;;;;;;5068310;28;52060;-62
2023/08/19 09:48:27;;;;;;;;;7.33;6.67;;;;;;;;5053009;28;51050;-62
2023/08/19 09:50:53;;;;;;;;;8.67;6.67;;;;;;;;5053260;28;51102;-62
2023/08/19 09:53:19;;;;;;;;;6.00;6.00;;;;;;;;5053475;28;51106;-62
2023/08/19 09:55:45;;;;;;;;;5.00;5.00;;;;;;;;5053024;28;52636;-62
2023/08/19 09:58:10;;;;;;;;;8.00;7.00;;;;;;;;5053143;28;51190;-62
2023/08/19 10:00:35;;;;;;;;;7.33;7.00;;;;;;;;5052736;28;51368;-62
2023/08/19 10:03:01;;;;;;;;;6.00;6.00;;;;;;;;5053209;28;51148;-62
2023/08/19 10:05:28;;;;;;;;;8.67;7.67;;;;;;;;5052925;28;51211;-62
2023/08/19 10:07:57;;;;;;;;;7.67;7.67;;;;;;;;5052838;28;51254;-62
2023/08/19 10:10:24;;;;;;;;;11.33;9.67;;;;;;;;5052962;28;50931;-62
2023/08/19 10:12:51;;;;;;;;;9.00;7.00;;;;;;;;5051047;28;51220;-62
2023/08/19 10:15:17;;;;;;;;;7.00;5.00;;;;;;;;5046685;28;52836;-62
2023/08/19 10:17:47;;;;;;;;;9.00;8.00;;;;;;;;5049614;28;51202;-62
2023/08/19 10:20:13;;;;;;;;;6.00;6.00;;;;;;;;5052647;28;51080;-62
2023/08/19 10:22:41;;;;;;;;;7.00;6.67;;;;;;;;5052638;28;51294;-61
2023/08/19 10:25:07;;;;;;;;;6.33;6.33;;;;;;;;5052490;28;52767;-63
2023/08/19 10:27:33;;;;;;;;;7.33;7.00;;;;;;;;5052307;28;51277;-62
2023/08/19 10:29:58;;;;;;;;;8.33;8.00;;;;;;;;5042217;28;51618;-62
2023/08/19 10:32:27;;;;;;;;;8.67;7.67;;;;;;;;5052312;28;51223;-62
2023/08/19 10:35:00;;;;;;;;;7.33;6.67;;;;;;;;5067902;28;50941;-62
2023/08/19 10:37:28;;;;;;;;;11.33;10.33;;;;;;;;5039757;28;51248;-62
2023/08/19 10:40:05;;;;;;;;;8.00;8.00;;;;;;;;5052361;28;50961;-62
2023/08/19 10:42:30;;;;;;;;;8.00;7.67;;;;;;;;5052499;28;50928;-62
2023/08/19 10:44:56;;;;;;;;;7.00;7.00;;;;;;;;5051948;28;51104;-63
2023/08/19 10:47:21;;;;;;;;;8.67;8.00;;;;;;;;5053380;28;50880;-63
2023/08/19 10:49:47;;;;;;;;;7.00;7.00;;;;;;;;5055708;28;51800;-63
2023/08/19 10:52:21;;;;;;;;;8.67;8.67;;;;;;;;5056091;28;51290;-62
2023/08/19 10:54:47;;;;;;;;;6.00;5.33;;;;;;;;5055517;28;51878;-63
2023/08/19 10:57:17;;;;;;;;;7.33;7.00;;;;;;;;5055792;28;51080;-62
2023/08/19 10:59:43;;;;;;;;;6.00;6.00;;;;;;;;5055591;28;50948;-62
2023/08/19 11:02:09;;;;;;;;;7.33;7.00;;;;;;;;5055887;28;50832;-62
2023/08/19 11:04:37;;;;;;;;;7.33;7.00;;;;;;;;5055182;28;51579;-63
2023/08/19 11:07:05;;;;;;;;;6.00;5.67;;;;;;;;5055667;28;51097;-62
2023/08/19 11:09:30;;;;;;;;;5.33;5.33;;;;;;;;5070487;28;51076;-62
2023/08/19 11:11:56;;;;;;;;;6.00;5.67;;;;;;;;5052499;28;50917;-60
2023/08/19 11:14:22;;;;;;;;;5.67;5.67;;;;;;;;5052870;28;52007;-60
2023/08/19 11:16:51;;;;;;;;;4.33;4.33;;;;;;;;5054501;28;50980;-60
2023/08/19 11:19:16;;;;;;;;;6.00;6.00;;;;;;;;5055173;28;51210;-60
2023/08/19 11:21:42;;;;;;;;;5.00;5.00;;;;;;;;5052379;28;51268;-60
2023/08/19 11:24:08;;;;;;;;;5.33;5.33;;;;;;;;5050136;28;51722;-61
2023/08/19 11:26:34;;;;;;;;;5.33;4.00;;;;;;;;5052003;28;51032;-63
2023/08/19 11:29:02;;;;;;;;;4.00;4.00;;;;;;;;5068325;28;51254;-62
2023/08/19 11:31:28;;;;;;;;;4.00;4.00;;;;;;;;5052443;28;51112;-62
2023/08/19 11:33:53;;;;;;;;;2.00;2.00;;;;;;;;5054244;28;51851;-62
2023/08/19 11:36:23;;;;;;;;;2.00;2.00;;;;;;;;5048131;28;51227;-62
2023/08/19 11:38:48;;;;;;;;;3.00;3.00;;;;;;;;5051229;28;51748;-62
2023/08/19 11:41:13;;;;;;;;;3.00;3.00;;;;;;;;5050571;28;51181;-61
2023/08/19 11:43:45;;;;;;;;;2.00;2.00;;;;;;;;5053867;28;51145;-61
2023/08/19 11:46:11;;;;;;;;;3.00;3.00;;;;;;;;5053782;28;51140;-60
2023/08/19 11:48:36;;;;;;;;;1.33;1.33;;;;;;;;5053865;28;50981;-59
2023/08/19 11:51:07;;;;;;;;;3.00;3.00;;;;;;;;5054011;28;51169;-59
2023/08/19 11:53:33;;;;;;;;;2.33;2.00;;;;;;;;5045308;28;51526;-62
2023/08/19 11:55:59;;;;;;;;;2.00;2.00;;;;;;;;5064936;27;50998;-62
2023/08/19 11:58:25;;;;;;;;;2.00;2.00;;;;;;;;5052709;28;51318;-61
2023/08/19 12:00:54;;;;;;;;;2.00;1.67;;;;;;;;5053130;28;51113;-60
2023/08/19 12:03:20;;;;;;;;;2.00;2.00;;;;;;;;5053726;28;51886;-61
2023/08/19 12:05:45;;;;;;;;;3.00;2.33;;;;;;;;5052626;28;51091;-61
2023/08/19 12:08:27;;;;;;;;;12.67;12.00;;;;;;;;5052433;28;51096;-61
2023/08/19 12:10:52;;;;;;;;;3.00;2.00;;;;;;;;5054491;28;51326;-61
2023/08/19 12:13:19;;;;;;;;;1.00;1.00;;;;;;;;5053424;28;51352;-61
2023/08/19 12:15:45;;;;;;;;;2.33;2.33;;;;;;;;5052914;28;51007;-62
2023/08/19 12:18:13;;;;;;;;;2.00;2.00;;;;;;;;5053017;28;51181;-62
2023/08/19 12:20:39;;;;;;;;;4.67;4.00;;;;;;;;5053965;28;50822;-62
2023/08/19 12:23:04;;;;;;;;;3.00;3.00;;;;;;;;5069090;28;51114;-62
2023/08/19 12:25:29;;;;;;;;;2.33;2.33;;;;;;;;5052674;28;50934;-62
2023/08/19 12:27:56;;;;;;;;;3.00;3.00;;;;;;;;5053943;28;51142;-62
2023/08/19 12:30:21;;;;;;;;;2.33;2.33;;;;;;;;5042425;28;51277;-62
2023/08/19 12:32:47;;;;;;;;;2.67;2.67;;;;;;;;5045270;28;51930;-61
2023/08/19 12:35:12;;;;;;;;;2.00;1.67;;;;;;;;5069582;27;51132;-62
2023/08/19 12:37:37;;;;;;;;;1.00;1.00;;;;;;;;5061724;27;51212;-62
2023/08/19 12:40:03;;;;;;;;;3.00;2.00;;;;;;;;5053703;28;51394;-62
2023/08/19 12:42:28;;;;;;;;;2.67;2.00;;;;;;;;5053586;28;52707;-62
2023/08/19 12:44:53;;;;;;;;;2.67;2.67;;;;;;;;5053451;28;50969;-61
2023/08/19 12:47:19;;;;;;;;;2.00;2.00;;;;;;;;5049818;28;51149;-62
2023/08/19 12:49:44;;;;;;;;;1.00;1.00;;;;;;;;5050787;28;51024;-62
2023/08/19 12:52:10;;;;;;;;;2.00;2.00;;;;;;;;5046382;28;51721;-61
2023/08/19 12:54:36;;;;;;;;;3.00;2.67;;;;;;;;5051993;28;51140;-62
2023/08/19 12:57:02;;;;;;;;;1.33;1.33;;;;;;;;5053424;28;51107;-61
2023/08/19 12:59:27;;;;;;;;;21.33;21.33;;;;;;;;5053370;28;51501;-61
2023/08/19 13:01:52;;;;;;;;;3.67;3.00;;;;;;;;5052500;28;51205;-61
2023/08/19 13:04:18;;;;;;;;;2.00;2.00;;;;;;;;5051607;28;50948;-61
2023/08/19 13:06:46;;;;;;;;;4.00;4.00;;;;;;;;5049966;28;50925;-61
2023/08/19 13:09:11;;;;;;;;;3.00;3.00;;;;;;;;5052853;28;50866;-61
2023/08/19 13:11:37;;;;;;;;;5.00;4.67;;;;;;;;5049010;28;51359;-62
2023/08/19 13:14:02;;;;;;;;;1.00;1.00;;;;;;;;5052403;28;51122;-62
2023/08/19 13:16:27;;;;;;;;;3.67;3.00;;;;;;;;5052601;28;51194;-62
2023/08/19 13:18:52;;;;;;;;;3.67;3.00;;;;;;;;5054113;28;51152;-62
2023/08/19 13:21:18;;;;;;;;;3.67;3.67;;;;;;;;5052835;28;51982;-60
2023/08/19 13:23:43;;;;;;;;;2.67;2.00;;;;;;;;5042125;28;51252;-61
2023/08/19 13:26:08;;;;;;;;;4.00;4.00;;;;;;;;5048758;28;51407;-61
2023/08/19 13:28:33;;;;;;;;;5.00;5.00;;;;;;;;5046873;28;51291;-62
2023/08/19 13:30:59;;;;;;;;;6.67;6.67;;;;;;;;5053741;28;52028;-64
2023/08/19 13:33:24;;;;;;;;;3.00;3.00;;;;;;;;5046329;28;51011;-63
2023/08/19 13:35:49;;;;;;;;;3.00;3.00;;;;;;;;5050999;28;51416;-62
2023/08/19 13:38:14;;;;;;;;;3.00;3.00;;;;;;;;5052610;28;51122;-61
2023/08/19 13:40:39;;;;;;;;;4.67;3.67;;;;;;;;5051841;28;51216;-61
2023/08/19 13:43:05;;;;;;;;;3.67;3.00;;;;;;;;5049322;28;51005;-61
2023/08/19 13:45:30;;;;;;;;;2.67;2.00;;;;;;;;5049107;28;51269;-62
2023/08/19 13:47:55;;;;;;;;;3.67;3.67;;;;;;;;5052575;28;51261;-61
2023/08/19 13:50:21;;;;;;;;;3.33;3.33;;;;;;;;5051386;28;51959;-62
2023/08/19 13:52:47;;;;;;;;;4.00;4.00;;;;;;;;5052168;28;51140;-62
2023/08/19 13:55:13;;;;;;;;;5.00;5.00;;;;;;;;5045554;28;51171;-62
2023/08/19 13:57:38;;;;;;;;;4.00;3.33;;;;;;;;5051213;28;51226;-62
2023/08/19 14:00:10;;;;;;;;;5.67;5.33;;;;;;;;5060233;27;53252;-62
2023/08/19 14:02:35;;;;;;;;;4.67;4.67;;;;;;;;5054318;28;51895;-61
2023/08/19 14:05:01;;;;;;;;;3.00;3.00;;;;;;;;5050029;28;51282;-61
2023/08/19 14:07:26;;;;;;;;;5.00;5.00;;;;;;;;5049770;28;51108;-61
2023/08/19 14:09:51;;;;;;;;;7.00;7.00;;;;;;;;5049779;28;51751;-62
2023/08/19 14:12:16;;;;;;;;;6.00;5.00;;;;;;;;5049345;28;51573;-62
2023/08/19 14:14:41;;;;;;;;;6.33;5.67;;;;;;;;5050609;28;51645;-61
2023/08/19 14:17:07;;;;;;;;;7.00;6.33;;;;;;;;5051263;28;51114;-62
2023/08/19 14:19:32;;;;;;;;;3.33;3.33;;;;;;;;5050983;28;51826;-61
2023/08/19 14:21:57;;;;;;;;;4.67;4.67;;;;;;;;5049474;28;51190;-61
2023/08/19 14:24:23;;;;;;;;;4.00;4.00;;;;;;;;5049157;28;51288;-62
2023/08/19 14:26:51;;;;;;;;;3.00;3.00;;;;;;;;5051285;28;51130;-62